Terminal Aerodrome Forecast
Issued by NWS

Home | Current Version | Previous Version | Text Only | Print | Product List | Glossary On
Versions: 1 2 3 4 5 6 7 8 9 10 11 12 13 14
000
FTUS41 KPHI 260520
TAFMIV
TAF
KMIV 260520Z 2606/2706 30003KT P6SM BKN120
     FM260900 35004KT P6SM OVC100
     FM261300 03007KT P6SM BKN150
     FM261800 36007KT P6SM SCT050 BKN250
     FM262200 30005KT P6SM FEW050 SCT250=

USA.gov is the U.S. government's official web portal to all federal, state and local government web resources and services.